Andrews, Indiana
Current Conditions -  °F | °C
As of 11:15 PM on Wednesday 28 Jan 2015 (Local Time) from KHHG Reporting Station
Clear Clear  
Wind Chill: 20°   Ceiling: Unl
Heat Index: 29°   Visibility: 10mi
Dew Point: 17°   Wind: 10mph
Humidity: 59%   Direction: 160°SSE
Pressure: 30.02"   Gusts: NA
Location:  40.86°N, 85.6°W
Report Text: KHHG 290415Z AUTO 16009KT 10SM CLR M01/M09 A3002 RMK AO2 T10151086
Loading
Personal Weather Stations






























Interactive Weather Map New forecast layout! Learn more

10-Day Weather Forecast

Advertisements
Track Severe Weather on mobile